Time;durP1;ratioP1;P1;durP2;ratioP2;P2;SDS_P1;SDS_P2;PMS_P1;PMS_P2;Temp;Humidity;BMP_temperature;BMP_pressure;BME280_temperature;BME280_humidity;BME280_pressure;Samples;Min_cycle;Max_cycle;Signal;HPM_P1;HPM_P2
2023/01/20 00:02:02;;;;;;;4.68;1.80;;;;;;;;;;6196360;23;20012;-94
2023/01/20 00:04:28;;;;;;;4.50;2.00;;;;;;;;;;6196787;23;20052;-94
2023/01/20 00:06:54;;;;;;;5.32;1.42;;;;;;;;;;6196988;23;20024;-94
2023/01/20 00:09:21;;;;;;;3.13;1.45;;;;;;;;;;6224184;23;20111;-94
2023/01/20 00:11:48;;;;;;;3.08;1.58;;;;;;;;;;6201666;23;20515;-95
2023/01/20 00:14:25;;;;;;;3.83;1.45;;;;;;;;;;6202044;23;20527;-95
2023/01/20 00:16:56;;;;;;;1.77;0.80;;;;;;;;;;6226697;23;20313;-95
2023/01/20 00:19:23;;;;;;;4.20;1.70;;;;;;;;;;6224697;23;20187;-94
2023/01/20 00:21:52;;;;;;;4.50;1.60;;;;;;;;;;6222897;23;20072;-93
2023/01/20 00:24:18;;;;;;;1.45;0.80;;;;;;;;;;6219840;23;20037;-93
2023/01/20 00:26:44;;;;;;;5.85;1.70;;;;;;;;;;6195658;23;20012;-94
2023/01/20 00:29:10;;;;;;;1.40;1.05;;;;;;;;;;6218433;23;20004;-94
2023/01/20 00:31:36;;;;;;;2.97;1.70;;;;;;;;;;6195057;23;20011;-93
2023/01/20 00:34:04;;;;;;;1.30;1.10;;;;;;;;;;6221966;23;20035;-95
2023/01/20 00:36:31;;;;;;;6.88;1.67;;;;;;;;;;6249598;23;20428;-94
2023/01/20 00:39:00;;;;;;;5.93;2.40;;;;;;;;;;6220723;23;20012;-95
2023/01/20 00:41:27;;;;;;;3.00;1.90;;;;;;;;;;6220580;23;20012;-94
2023/01/20 00:43:53;;;;;;;4.65;1.90;;;;;;;;;;6220948;23;20044;-94
2023/01/20 00:46:21;;;;;;;2.90;1.75;;;;;;;;;;6196675;23;20095;-93
2023/01/20 00:48:48;;;;;;;3.70;2.00;;;;;;;;;;6216811;22;20289;-94
2023/01/20 00:51:14;;;;;;;7.78;3.00;;;;;;;;;;6190373;23;20020;-95
2023/01/20 00:53:42;;;;;;;7.30;3.33;;;;;;;;;;6240995;23;20381;-95
2023/01/20 00:56:09;;;;;;;6.95;3.67;;;;;;;;;;6217889;23;20004;-94
2023/01/20 00:58:38;;;;;;;6.95;2.25;;;;;;;;;;6241558;23;20040;-94
2023/01/20 01:01:04;;;;;;;8.00;2.63;;;;;;;;;;6217793;23;20012;-93
2023/01/20 01:03:31;;;;;;;7.32;2.72;;;;;;;;;;6217082;23;20020;-93
2023/01/20 01:06:14;;;;;;;7.57;2.67;;;;;;;;;;6214484;23;20009;-93
2023/01/20 01:08:40;;;;;;;7.35;3.33;;;;;;;;;;6241975;23;20008;-93
2023/01/20 01:11:09;;;;;;;6.88;2.92;;;;;;;;;;6237615;23;20004;-94
2023/01/20 01:13:37;;;;;;;11.77;4.32;;;;;;;;;;6214254;23;20051;-95
2023/01/20 01:16:03;;;;;;;9.10;3.83;;;;;;;;;;6240307;23;20008;-94
2023/01/20 01:18:29;;;;;;;9.10;4.00;;;;;;;;;;6214456;23;20095;-94
2023/01/20 01:21:06;;;;;;;12.27;4.47;;;;;;;;;;6240913;23;20008;-95
2023/01/20 01:24:05;;;;;;;13.25;5.07;;;;;;;;;;6242045;23;20032;-95
2023/01/20 01:26:34;;;;;;;12.20;5.65;;;;;;;;;;6241424;23;20008;-96
2023/01/20 01:29:00;;;;;;;17.33;5.93;;;;;;;;;;6215769;23;20015;-95
2023/01/20 01:31:26;;;;;;;16.98;5.75;;;;;;;;;;6213688;23;20036;-94
2023/01/20 01:33:59;;;;;;;9.77;4.72;;;;;;;;;;6211859;23;20012;-94
2023/01/20 01:36:25;;;;;;;20.70;7.22;;;;;;;;;;6241988;23;20016;-93
2023/01/20 01:38:52;;;;;;;13.43;5.85;;;;;;;;;;6217210;23;20431;-94
2023/01/20 01:41:18;;;;;;;17.70;6.35;;;;;;;;;;6191368;23;20431;-93
2023/01/20 01:44:03;;;;;;;23.48;7.43;;;;;;;;;;6217593;23;20455;-93
2023/01/20 01:46:30;;;;;;;18.48;6.90;;;;;;;;;;6219284;23;20008;-93
2023/01/20 01:49:32;;;;;;;13.98;5.65;;;;;;;;;;6198106;22;20492;-95
2023/01/20 01:52:07;;;;;;;13.52;5.30;;;;;;;;;;6220899;23;20571;-94
2023/01/20 01:54:36;;;;;;;21.15;6.00;;;;;;;;;;6220466;23;20083;-94
2023/01/20 01:57:34;;;;;;;18.20;7.07;;;;;;;;;;6222100;23;20011;-94
2023/01/20 02:00:00;;;;;;;14.10;6.07;;;;;;;;;;6223421;23;20106;-95
2023/01/20 02:02:29;;;;;;;13.68;5.55;;;;;;;;;;6219279;23;20364;-95
2023/01/20 02:04:58;;;;;;;18.23;7.00;;;;;;;;;;6191922;23;20625;-94
2023/01/20 02:07:44;;;;;;;13.73;6.35;;;;;;;;;;6197160;23;20038;-95
2023/01/20 02:13:41;;;;;;;21.65;6.55;;;;;;;;;;6229694;22;20008;-95
2023/01/20 02:16:26;;;;;;;13.93;6.57;;;;;;;;;;6220857;23;20008;-95
2023/01/20 02:19:23;;;;;;;16.85;6.63;;;;;;;;;;6219712;23;20007;-94
2023/01/20 02:21:58;;;;;;;11.65;4.82;;;;;;;;;;6190804;23;20088;-94
2023/01/20 02:24:37;;;;;;;12.73;6.22;;;;;;;;;;6219875;23;20008;-94
2023/01/20 02:27:28;;;;;;;12.73;5.90;;;;;;;;;;6221224;23;20018;-95
2023/01/20 02:33:47;;;;;;;;;;;;;;;;;;;;;
2023/01/20 02:36:50;;;;;;;10.15;4.40;;;;;;;;;;6247863;23;20091;-94
2023/01/20 02:39:36;;;;;;;9.32;4.63;;;;;;;;;;6222301;23;20361;-95
2023/01/20 02:42:21;;;;;;;18.02;6.47;;;;;;;;;;6222151;23;20065;-95
2023/01/20 02:45:05;;;;;;;;;;;;;;;;;;;;;
2023/01/20 02:47:50;;;;;;;18.02;7.20;;;;;;;;;;6247179;23;20047;-95
2023/01/20 02:51:04;;;;;;;;;;;;;;;;;;;;;
2023/01/20 02:53:50;;;;;;;4.97;2.97;;;;;;;;;;6245703;23;20535;-94
2023/01/20 02:56:24;;;;;;;16.57;6.67;;;;;;;;;;6220789;23;20016;-95
2023/01/20 02:58:52;;;;;;;13.07;5.25;;;;;;;;;;6195423;23;20043;-94
2023/01/20 03:01:42;;;;;;;14.75;6.45;;;;;;;;;;6219811;23;20019;-95
2023/01/20 03:04:10;;;;;;;17.55;5.88;;;;;;;;;;6218677;23;20012;-94
2023/01/20 03:06:53;;;;;;;;;;;;;;;;;;;;;
2023/01/20 03:09:59;;;;;;;10.15;5.03;;;;;;;;;;6249277;23;20015;-95
2023/01/20 03:15:43;;;;;;;19.20;7.10;;;;;;;;;;6203264;23;20012;-95
2023/01/20 03:18:15;;;;;;;15.38;5.85;;;;;;;;;;6226863;23;20030;-95
2023/01/20 03:20:44;;;;;;;20.60;7.32;;;;;;;;;;6197252;23;20012;-94
2023/01/20 03:23:10;;;;;;;13.00;6.72;;;;;;;;;;6219464;23;20344;-94
2023/01/20 03:25:43;;;;;;;17.50;7.22;;;;;;;;;;6196132;23;20483;-95
2023/01/20 03:28:12;;;;;;;20.55;7.97;;;;;;;;;;6195972;23;20004;-95
2023/01/20 03:30:40;;;;;;;16.33;6.38;;;;;;;;;;6196375;23;20418;-94
2023/01/20 03:33:30;;;;;;;8.70;3.83;;;;;;;;;;6221528;23;20036;-95
2023/01/20 03:36:02;;;;;;;17.98;8.35;;;;;;;;;;6220876;23;20015;-95
2023/01/20 03:38:29;;;;;;;16.15;6.57;;;;;;;;;;6195851;23;20012;-93
2023/01/20 03:41:10;;;;;;;21.27;8.40;;;;;;;;;;6219195;23;20043;-94
2023/01/20 03:43:43;;;;;;;17.02;7.63;;;;;;;;;;6217730;23;20004;-94
2023/01/20 03:46:14;;;;;;;18.23;8.68;;;;;;;;;;6218486;23;20053;-93
2023/01/20 03:48:46;;;;;;;18.73;7.63;;;;;;;;;;6219578;23;20008;-94
2023/01/20 03:51:23;;;;;;;10.52;5.43;;;;;;;;;;6220569;22;20074;-95
2023/01/20 03:53:49;;;;;;;11.98;5.20;;;;;;;;;;6217773;23;20072;-95
2023/01/20 03:56:15;;;;;;;12.93;6.15;;;;;;;;;;6219147;23;20012;-94
2023/01/20 03:58:46;;;;;;;21.35;8.45;;;;;;;;;;6220204;23;20444;-95
2023/01/20 04:01:13;;;;;;;16.05;8.68;;;;;;;;;;6221475;23;20004;-94
2023/01/20 04:03:45;;;;;;;17.67;5.63;;;;;;;;;;6195328;23;20021;-94
2023/01/20 04:06:12;;;;;;;15.38;6.68;;;;;;;;;;6220946;23;20087;-96
2023/01/20 04:09:07;;;;;;;;;;;;;;;;;;;;;
2023/01/20 04:17:41;;;;;;;;;;;;;;;;;;6184373;22;20676;-94
2023/01/20 04:20:29;;;;;;;;;;;;;;;;;;;;;
2023/01/20 04:22:58;;;;;;;25.55;9.48;;;;;;;;;;6247349;23;20091;-94
2023/01/20 04:25:26;;;;;;;14.00;4.70;;;;;;;;;;6215717;23;20425;-94
2023/01/20 04:27:52;;;;;;;19.42;7.15;;;;;;;;;;6216356;23;20004;-94
2023/01/20 04:30:20;;;;;;;23.52;10.25;;;;;;;;;;6192659;23;20012;-94
2023/01/20 04:32:47;;;;;;;22.17;8.70;;;;;;;;;;6243138;23;20008;-94
2023/01/20 04:35:14;;;;;;;13.73;7.72;;;;;;;;;;6221815;23;20009;-94
2023/01/20 04:37:40;;;;;;;16.40;5.28;;;;;;;;;;6223522;23;20031;-94
2023/01/20 04:40:06;;;;;;;16.35;6.18;;;;;;;;;;6198736;23;20066;-95
2023/01/20 04:42:33;;;;;;;19.13;7.03;;;;;;;;;;6195648;23;20012;-94
2023/01/20 04:44:59;;;;;;;30.70;10.95;;;;;;;;;;6222141;23;20007;-94
2023/01/20 04:47:25;;;;;;;22.35;9.50;;;;;;;;;;6246944;23;20000;-94
2023/01/20 04:49:57;;;;;;;24.80;9.85;;;;;;;;;;6224377;22;20420;-95
2023/01/20 04:52:24;;;;;;;30.63;12.02;;;;;;;;;;6221777;23;20008;-95
2023/01/20 04:54:50;;;;;;;21.45;7.40;;;;;;;;;;6246891;23;20012;-95
2023/01/20 04:57:16;;;;;;;21.13;6.70;;;;;;;;;;6196815;23;20012;-94
2023/01/20 04:59:42;;;;;;;22.63;9.77;;;;;;;;;;6219105;23;20369;-93
2023/01/20 05:02:09;;;;;;;26.38;10.70;;;;;;;;;;6219643;23;20064;-93
2023/01/20 05:04:36;;;;;;;23.63;9.77;;;;;;;;;;6245767;23;20016;-94
2023/01/20 05:07:03;;;;;;;16.30;5.97;;;;;;;;;;6218453;23;20008;-93
2023/01/20 05:09:29;;;;;;;23.52;9.05;;;;;;;;;;6193432;23;20012;-93
2023/01/20 05:11:55;;;;;;;19.58;8.00;;;;;;;;;;6192301;23;20008;-94
2023/01/20 05:14:21;;;;;;;23.83;9.18;;;;;;;;;;6192127;23;20016;-95
2023/01/20 05:16:47;;;;;;;24.77;9.82;;;;;;;;;;6191034;23;21015;-95
2023/01/20 05:19:13;;;;;;;25.98;9.35;;;;;;;;;;6192819;23;20016;-95
2023/01/20 05:21:43;;;;;;;30.63;11.23;;;;;;;;;;6193173;23;20013;-94
2023/01/20 05:24:09;;;;;;;10.50;5.30;;;;;;;;;;6244880;23;20008;-94
2023/01/20 05:26:37;;;;;;;30.30;11.82;;;;;;;;;;6193732;23;20000;-93
2023/01/20 05:29:03;;;;;;;27.42;9.70;;;;;;;;;;6244969;23;20332;-93
2023/01/20 05:31:36;;;;;;;23.05;9.15;;;;;;;;;;6220437;23;20005;-94
2023/01/20 05:34:04;;;;;;;17.38;6.07;;;;;;;;;;6197184;23;20432;-94
2023/01/20 05:36:36;;;;;;;20.67;9.18;;;;;;;;;;6220977;23;20004;-93
2023/01/20 05:39:02;;;;;;;22.60;8.23;;;;;;;;;;6196067;23;20014;-93
2023/01/20 05:41:36;;;;;;;25.60;10.82;;;;;;;;;;6219476;23;20045;-93
2023/01/20 05:44:02;;;;;;;26.85;10.25;;;;;;;;;;6193991;23;20043;-95
2023/01/20 05:46:28;;;;;;;16.67;6.90;;;;;;;;;;6194870;23;20015;-95
2023/01/20 05:48:57;;;;;;;18.02;7.05;;;;;;;;;;6195945;23;20491;-94
2023/01/20 05:54:37;;;;;;;22.73;8.40;;;;;;;;;;6220590;23;20027;-94
2023/01/20 06:00:22;;;;;;;27.38;10.07;;;;;;;;;;6204614;23;20016;-96
2023/01/20 06:02:54;;;;;;;20.53;8.40;;;;;;;;;;6193605;23;20040;-94
2023/01/20 06:05:20;;;;;;;31.52;11.07;;;;;;;;;;6242521;23;20001;-94
2023/01/20 06:07:50;;;;;;;23.58;8.55;;;;;;;;;;6214450;23;20008;-95
2023/01/20 06:10:16;;;;;;;28.85;9.43;;;;;;;;;;6239945;23;20004;-94
2023/01/20 06:13:01;;;;;;;13.32;5.53;;;;;;;;;;6240192;23;20650;-95
2023/01/20 06:15:36;;;;;;;18.40;6.53;;;;;;;;;;6241328;23;20008;-94
2023/01/20 06:18:11;;;;;;;13.25;6.85;;;;;;;;;;6244863;23;20012;-95
2023/01/20 06:20:48;;;;;;;30.75;10.77;;;;;;;;;;6240894;23;20015;-93
2023/01/20 06:23:37;;;;;;;27.52;9.93;;;;;;;;;;6219121;23;20001;-96
2023/01/20 06:26:13;;;;;;;12.70;6.80;;;;;;;;;;6202330;23;20075;-95
2023/01/20 06:28:39;;;;;;;;;;;;;;;;;;6243110;23;20405;-95
2023/01/20 06:31:36;;;;;;;23.13;7.93;;;;;;;;;;6218386;23;19928;-95
2023/01/20 06:34:19;;;;;;;23.33;8.77;;;;;;;;;;6241063;23;20429;-95
2023/01/20 06:36:51;;;;;;;37.25;12.77;;;;;;;;;;6215676;23;20012;-94
2023/01/20 06:39:27;;;;;;;28.42;10.27;;;;;;;;;;6215528;23;20035;-94
2023/01/20 06:41:57;;;;;;;14.63;4.60;;;;;;;;;;6213353;23;20009;-94
2023/01/20 06:47:26;;;;;;;10.45;4.88;;;;;;;;;;6210176;23;20441;-94
2023/01/20 06:49:52;;;;;;;14.23;7.72;;;;;;;;;;6217038;22;20005;-94
2023/01/20 06:52:37;;;;;;;25.98;10.23;;;;;;;;;;6214473;22;20488;-94
2023/01/20 06:55:03;;;;;;;10.95;5.40;;;;;;;;;;6211702;23;20385;-94
2023/01/20 06:57:59;;;;;;;23.83;9.65;;;;;;;;;;6219942;23;20009;-93
2023/01/20 07:00:51;;;;;;;20.48;9.02;;;;;;;;;;6246232;23;20495;-95
2023/01/20 07:03:43;;;;;;;33.22;11.38;;;;;;;;;;6249028;23;20062;-96
2023/01/20 07:06:15;;;;;;;28.15;12.15;;;;;;;;;;6216003;23;20032;-94
2023/01/20 07:08:47;;;;;;;23.75;8.27;;;;;;;;;;6214648;23;20558;-94
2023/01/20 07:11:13;;;;;;;24.13;9.32;;;;;;;;;;6213444;23;20017;-94
2023/01/20 07:13:42;;;;;;;33.10;13.40;;;;;;;;;;6243905;23;20005;-94
2023/01/20 07:16:23;;;;;;;30.30;11.52;;;;;;;;;;6196861;23;20692;-96
2023/01/20 07:18:50;;;;;;;29.65;11.88;;;;;;;;;;6218490;23;20024;-93
2023/01/20 07:21:29;;;;;;;32.25;12.00;;;;;;;;;;6217604;23;20011;-93
2023/01/20 07:23:55;;;;;;;27.88;9.98;;;;;;;;;;6216190;23;20008;-94
2023/01/20 07:26:25;;;;;;;12.32;5.10;;;;;;;;;;6237511;23;20012;-94
2023/01/20 07:28:53;;;;;;;37.20;10.05;;;;;;;;;;6216529;23;20016;-93
2023/01/20 07:31:24;;;;;;;24.33;8.02;;;;;;;;;;6191122;23;20008;-94
2023/01/20 07:33:51;;;;;;;13.10;5.63;;;;;;;;;;6241199;23;20012;-92
2023/01/20 07:36:25;;;;;;;33.10;11.80;;;;;;;;;;6216259;23;20268;-94
2023/01/20 07:38:52;;;;;;;30.02;11.05;;;;;;;;;;6192997;23;20016;-94
2023/01/20 07:41:18;;;;;;;33.55;13.18;;;;;;;;;;6215223;23;20099;-95
2023/01/20 07:43:48;;;;;;;30.67;11.27;;;;;;;;;;6218146;23;20532;-94
2023/01/20 07:46:17;;;;;;;33.55;11.55;;;;;;;;;;6215886;23;20012;-94
2023/01/20 07:48:52;;;;;;;30.85;13.07;;;;;;;;;;6215592;23;20384;-94
2023/01/20 07:51:24;;;;;;;35.50;11.60;;;;;;;;;;6218316;22;20127;-95
2023/01/20 07:53:57;;;;;;;16.17;7.68;;;;;;;;;;6192503;23;20247;-94
2023/01/20 07:56:26;;;;;;;17.55;7.90;;;;;;;;;;6221401;23;20379;-94
2023/01/20 07:58:55;;;;;;;31.40;12.05;;;;;;;;;;6221169;23;20500;-93
2023/01/20 08:01:23;;;;;;;35.60;12.90;;;;;;;;;;6195013;23;20012;-94
2023/01/20 08:03:49;;;;;;;39.08;13.75;;;;;;;;;;6244975;23;20345;-94
2023/01/20 08:06:17;;;;;;;28.23;10.07;;;;;;;;;;6194167;23;20068;-93
2023/01/20 08:08:46;;;;;;;31.60;12.05;;;;;;;;;;6245467;23;20004;-93
2023/01/20 08:11:15;;;;;;;27.08;7.22;;;;;;;;;;6245235;23;20023;-93
2023/01/20 08:13:46;;;;;;;27.38;7.22;;;;;;;;;;6220899;23;20015;-94
2023/01/20 08:16:17;;;;;;;25.23;10.00;;;;;;;;;;6219222;23;20428;-95
2023/01/20 08:18:44;;;;;;;26.15;9.25;;;;;;;;;;6245580;23;20015;-94
2023/01/20 08:21:29;;;;;;;34.45;12.98;;;;;;;;;;6218957;23;20011;-94
2023/01/20 08:23:56;;;;;;;37.50;12.80;;;;;;;;;;6247037;23;20139;-95
2023/01/20 08:26:26;;;;;;;37.95;14.95;;;;;;;;;;6248110;23;20007;-96
2023/01/20 08:28:55;;;;;;;32.63;10.23;;;;;;;;;;6199052;23;20387;-93
2023/01/20 08:31:22;;;;;;;38.45;14.95;;;;;;;;;;6247063;23;20091;-93
2023/01/20 08:33:55;;;;;;;40.55;15.02;;;;;;;;;;6246330;23;20019;-94
2023/01/20 08:36:28;;;;;;;36.17;13.23;;;;;;;;;;6245815;23;20027;-94
2023/01/20 08:38:56;;;;;;;41.45;15.38;;;;;;;;;;6247722;23;20086;-94
2023/01/20 08:41:27;;;;;;;46.88;15.52;;;;;;;;;;6247908;23;20419;-93
2023/01/20 08:43:54;;;;;;;31.58;11.63;;;;;;;;;;6246280;23;20043;-94
2023/01/20 08:46:21;;;;;;;28.38;9.82;;;;;;;;;;6247335;23;20416;-94
2023/01/20 08:49:11;;;;;;;30.60;12.00;;;;;;;;;;6222793;23;20027;-93
2023/01/20 08:51:44;;;;;;;33.70;11.07;;;;;;;;;;6246589;22;20016;-94
2023/01/20 08:54:16;;;;;;;41.17;14.10;;;;;;;;;;6194708;23;20016;-93
2023/01/20 08:56:45;;;;;;;36.85;13.55;;;;;;;;;;6245673;23;20004;-93
2023/01/20 08:59:32;;;;;;;41.03;14.60;;;;;;;;;;6195526;23;20018;-94
2023/01/20 09:01:57;;;;;;;48.53;16.83;;;;;;;;;;6246709;23;20406;-93
2023/01/20 09:04:26;;;;;;;37.80;14.18;;;;;;;;;;6196821;23;20016;-94
2023/01/20 09:06:52;;;;;;;35.53;12.45;;;;;;;;;;6198638;23;20070;-94
2023/01/20 09:09:19;;;;;;;21.50;8.13;;;;;;;;;;6244959;23;20008;-94
2023/01/20 09:11:52;;;;;;;50.35;17.55;;;;;;;;;;6221775;23;20087;-93
2023/01/20 09:14:19;;;;;;;27.55;10.95;;;;;;;;;;6197136;23;20046;-93
2023/01/20 09:16:51;;;;;;;36.63;14.23;;;;;;;;;;6196248;23;20012;-94
2023/01/20 09:19:18;;;;;;;50.60;14.55;;;;;;;;;;6195638;23;20147;-94
2023/01/20 09:21:49;;;;;;;43.67;17.85;;;;;;;;;;6247004;23;20379;-94
2023/01/20 09:24:16;;;;;;;29.52;10.35;;;;;;;;;;6248165;23;20031;-93
2023/01/20 09:26:42;;;;;;;33.17;14.15;;;;;;;;;;6246105;23;20000;-95
2023/01/20 09:29:10;;;;;;;43.47;17.75;;;;;;;;;;6194850;23;20012;-94
2023/01/20 09:31:43;;;;;;;45.42;17.15;;;;;;;;;;6245576;23;20486;-92
2023/01/20 09:34:15;;;;;;;45.08;16.98;;;;;;;;;;6246645;23;20095;-92
2023/01/20 09:43:52;;;;;;;43.53;15.60;;;;;;;;;;6249023;23;20073;-93
2023/01/20 09:45:44;;;;;;;32.55;11.35;;;;;;;;;;6249057;23;20138;-94
2023/01/20 09:54:41;;;;;;;49.28;16.05;;;;;;;;;;6248957;23;20443;-93
2023/01/20 09:57:10;;;;;;;35.60;13.63;;;;;;;;;;6224854;23;20008;-93
2023/01/20 09:59:40;;;;;;;21.10;8.73;;;;;;;;;;6221777;23;20008;-93
2023/01/20 10:02:11;;;;;;;34.88;14.07;;;;;;;;;;6220038;23;20490;-93
2023/01/20 10:04:40;;;;;;;33.08;12.05;;;;;;;;;;6243962;23;20043;-91
2023/01/20 10:07:12;;;;;;;46.40;16.85;;;;;;;;;;6245852;23;20098;-92
2023/01/20 10:09:43;;;;;;;34.70;11.32;;;;;;;;;;6244714;23;20009;-92
2023/01/20 10:12:18;;;;;;;45.05;13.20;;;;;;;;;;6245333;23;20080;-91
2023/01/20 10:14:50;;;;;;;40.42;15.98;;;;;;;;;;6245567;23;20046;-92
2023/01/20 10:17:33;;;;;;;39.70;14.38;;;;;;;;;;6244156;23;20019;-92
2023/01/20 10:20:11;;;;;;;48.90;15.93;;;;;;;;;;6243284;23;20332;-93
2023/01/20 10:22:40;;;;;;;44.10;14.15;;;;;;;;;;6243737;23;20429;-92
2023/01/20 10:25:14;;;;;;;49.80;13.95;;;;;;;;;;6244571;23;20337;-92
2023/01/20 10:27:44;;;;;;;39.25;13.38;;;;;;;;;;6243490;23;20015;-93
2023/01/20 10:30:11;;;;;;;54.10;14.85;;;;;;;;;;6243376;23;20004;-93
2023/01/20 10:32:39;;;;;;;56.00;16.35;;;;;;;;;;6243572;23;20027;-93
2023/01/20 10:35:16;;;;;;;45.63;16.67;;;;;;;;;;6247505;23;20385;-93
2023/01/20 10:37:54;;;;;;;38.67;13.52;;;;;;;;;;6247038;23;20070;-94
2023/01/20 10:40:23;;;;;;;33.75;11.30;;;;;;;;;;6202494;23;20008;-94
2023/01/20 10:42:58;;;;;;;49.88;15.00;;;;;;;;;;6247746;23;20063;-93
2023/01/20 10:45:32;;;;;;;45.35;16.27;;;;;;;;;;6248616;23;20027;-93
2023/01/20 10:48:05;;;;;;;35.05;12.55;;;;;;;;;;6247563;23;20004;-94
2023/01/20 10:50:45;;;;;;;42.13;14.43;;;;;;;;;;6244335;23;20447;-93
2023/01/20 10:53:17;;;;;;;44.25;16.05;;;;;;;;;;6245795;22;20015;-93
2023/01/20 10:55:58;;;;;;;50.47;16.50;;;;;;;;;;6246693;23;20004;-92
2023/01/20 10:58:29;;;;;;;43.72;14.73;;;;;;;;;;6243165;23;20008;-93
2023/01/20 11:01:07;;;;;;;50.80;18.30;;;;;;;;;;6244438;23;20439;-93
2023/01/20 11:03:40;;;;;;;46.25;15.55;;;;;;;;;;6245323;23;20099;-92
2023/01/20 11:06:06;;;;;;;55.67;18.23;;;;;;;;;;6244004;23;20004;-92
2023/01/20 11:08:33;;;;;;;48.47;16.58;;;;;;;;;;6242366;23;20015;-93
2023/01/20 11:11:05;;;;;;;52.88;17.42;;;;;;;;;;6192916;23;20440;-93
2023/01/20 11:13:31;;;;;;;30.02;13.63;;;;;;;;;;6241528;23;20375;-92
2023/01/20 11:16:00;;;;;;;41.90;15.57;;;;;;;;;;6191240;23;20074;-93
2023/01/20 11:18:28;;;;;;;47.35;16.58;;;;;;;;;;6241637;23;20012;-92
2023/01/20 11:20:54;;;;;;;46.25;16.25;;;;;;;;;;6242306;23;20336;-92
2023/01/20 11:23:20;;;;;;;46.40;15.65;;;;;;;;;;6242249;23;20146;-93
2023/01/20 11:25:54;;;;;;;46.60;16.77;;;;;;;;;;6242244;23;20004;-93
2023/01/20 11:28:20;;;;;;;54.83;17.50;;;;;;;;;;6241968;23;20024;-93
2023/01/20 11:30:54;;;;;;;45.55;16.00;;;;;;;;;;6192399;23;20437;-92
2023/01/20 11:33:25;;;;;;;44.20;16.35;;;;;;;;;;6241038;23;20091;-93
2023/01/20 11:36:00;;;;;;;53.90;17.40;;;;;;;;;;6243481;23;20007;-93
2023/01/20 11:38:28;;;;;;;49.30;16.80;;;;;;;;;;6242576;23;20091;-95
2023/01/20 11:40:56;;;;;;;47.55;14.93;;;;;;;;;;6241145;23;20008;-92
2023/01/20 11:43:36;;;;;;;58.65;17.73;;;;;;;;;;6241913;23;20008;-93
2023/01/20 11:46:29;;;;;;;36.58;12.10;;;;;;;;;;6242034;23;20098;-92
2023/01/20 11:49:36;;;;;;;48.83;16.35;;;;;;;;;;6208499;23;20012;-93
2023/01/20 11:52:12;;;;;;;39.38;14.90;;;;;;;;;;6069925;23;20020;-92
2023/01/20 11:54:48;;;;;;;49.95;15.45;;;;;;;;;;6046511;23;20057;-93
2023/01/20 11:57:16;;;;;;;52.50;16.13;;;;;;;;;;6142572;23;20055;-93
2023/01/20 11:59:51;;;;;;;52.67;15.70;;;;;;;;;;6210718;23;20594;-92
2023/01/20 12:02:26;;;;;;;51.72;17.27;;;;;;;;;;6162820;23;20023;-92
2023/01/20 12:05:06;;;;;;;46.05;15.95;;;;;;;;;;6211222;23;20008;-91
2023/01/20 12:07:43;;;;;;;44.35;15.85;;;;;;;;;;6211745;23;20087;-92
2023/01/20 12:10:15;;;;;;;37.33;12.18;;;;;;;;;;6211997;23;20371;-92
2023/01/20 12:12:44;;;;;;;61.60;18.40;;;;;;;;;;6211387;23;20009;-92
2023/01/20 12:15:17;;;;;;;50.78;17.25;;;;;;;;;;6211927;23;20412;-93
2023/01/20 12:18:00;;;;;;;51.08;17.42;;;;;;;;;;6211670;23;20211;-92
2023/01/20 12:20:33;;;;;;;52.97;16.70;;;;;;;;;;6211651;23;20441;-93
2023/01/20 12:23:22;;;;;;;52.33;16.83;;;;;;;;;;6211532;23;20018;-92
2023/01/20 12:25:48;;;;;;;52.63;18.13;;;;;;;;;;6212974;23;20092;-91
2023/01/20 12:28:33;;;;;;;62.03;16.85;;;;;;;;;;6211167;23;20382;-92
2023/01/20 12:31:04;;;;;;;39.72;13.65;;;;;;;;;;6210665;23;20016;-92
2023/01/20 12:33:31;;;;;;;46.88;15.25;;;;;;;;;;6211900;23;20009;-93
2023/01/20 12:36:12;;;;;;;45.22;15.02;;;;;;;;;;6212900;23;20024;-93
2023/01/20 12:39:01;;;;;;;40.15;15.80;;;;;;;;;;6211270;23;20012;-93
2023/01/20 12:41:46;;;;;;;45.78;14.07;;;;;;;;;;6186489;23;20009;-93
2023/01/20 12:44:32;;;;;;;54.72;15.70;;;;;;;;;;6211904;23;20019;-93
2023/01/20 12:46:58;;;;;;;;;;;;;;;;;;6113636;23;20068;-92
2023/01/20 12:49:51;;;;;;;41.72;13.60;;;;;;;;;;6187155;23;19989;-92
2023/01/20 12:52:17;;;;;;;39.58;14.00;;;;;;;;;;6215864;22;20008;-92
2023/01/20 12:55:08;;;;;;;42.33;14.52;;;;;;;;;;6243010;23;20015;-92
2023/01/20 12:57:47;;;;;;;34.58;13.63;;;;;;;;;;6243040;23;20008;-93
2023/01/20 13:00:16;;;;;;;44.72;13.40;;;;;;;;;;6244100;23;20007;-92
2023/01/20 13:02:51;;;;;;;46.65;15.18;;;;;;;;;;6242910;23;20012;-93
2023/01/20 13:05:25;;;;;;;50.45;17.15;;;;;;;;;;6242501;23;20069;-92
2023/01/20 13:08:02;;;;;;;42.92;15.70;;;;;;;;;;6242164;23;20428;-93
2023/01/20 13:10:50;;;;;;;54.92;16.30;;;;;;;;;;6242849;23;20339;-93
2023/01/20 13:13:28;;;;;;;47.17;16.00;;;;;;;;;;6241847;23;20109;-93
2023/01/20 13:16:04;;;;;;;43.72;16.58;;;;;;;;;;6239148;23;20015;-93
2023/01/20 13:18:44;;;;;;;39.05;13.18;;;;;;;;;;6241502;23;20011;-93
2023/01/20 13:21:19;;;;;;;49.80;15.88;;;;;;;;;;6242083;23;20414;-93
2023/01/20 13:23:46;;;;;;;50.90;16.40;;;;;;;;;;6242735;23;20008;-93
2023/01/20 13:26:13;;;;;;;53.47;16.90;;;;;;;;;;6191545;23;20008;-92
2023/01/20 13:28:50;;;;;;;57.63;16.88;;;;;;;;;;6241587;23;20047;-94
2023/01/20 13:31:41;;;;;;;53.50;18.40;;;;;;;;;;6239828;23;20139;-94
2023/01/20 13:34:23;;;;;;;39.85;15.32;;;;;;;;;;6237952;23;20174;-93
2023/01/20 13:37:08;;;;;;;47.95;14.98;;;;;;;;;;6239327;23;20016;-92
2023/01/20 13:39:48;;;;;;;45.05;15.35;;;;;;;;;;6241444;23;20031;-95
2023/01/20 13:42:23;;;;;;;51.72;17.00;;;;;;;;;;6245846;23;20035;-95
2023/01/20 13:45:09;;;;;;;50.63;17.13;;;;;;;;;;6247986;23;20417;-94
2023/01/20 13:47:51;;;;;;;56.85;17.20;;;;;;;;;;6246982;23;20551;-94
2023/01/20 13:50:30;;;;;;;49.92;16.83;;;;;;;;;;6248367;23;20346;-94
2023/01/20 13:52:56;;;;;;;41.42;14.30;;;;;;;;;;6242843;22;20012;-94
2023/01/20 13:55:44;;;;;;;44.88;14.32;;;;;;;;;;6216088;23;20008;-94
2023/01/20 13:58:22;;;;;;;45.47;16.00;;;;;;;;;;6215241;23;20441;-94
2023/01/20 14:00:49;;;;;;;52.40;15.85;;;;;;;;;;6214980;23;20400;-94
2023/01/20 14:03:18;;;;;;;46.95;15.52;;;;;;;;;;6212881;23;20039;-94
2023/01/20 14:06:16;;;;;;;35.78;14.52;;;;;;;;;;6214196;23;20039;-95
2023/01/20 14:08:44;;;;;;;48.10;15.27;;;;;;;;;;6213706;23;20001;-94
2023/01/20 14:11:16;;;;;;;41.63;14.02;;;;;;;;;;6213491;23;20005;-94
2023/01/20 14:13:53;;;;;;;42.15;15.82;;;;;;;;;;6214874;23;20421;-94
2023/01/20 14:16:32;;;;;;;49.10;16.02;;;;;;;;;;6217509;23;20064;-94
2023/01/20 14:19:00;;;;;;;46.92;15.30;;;;;;;;;;6218960;23;20012;-94
2023/01/20 14:21:30;;;;;;;50.80;15.70;;;;;;;;;;6217135;23;20318;-93
2023/01/20 14:24:03;;;;;;;45.78;15.02;;;;;;;;;;6214280;23;20326;-94
2023/01/20 14:26:30;;;;;;;33.92;10.98;;;;;;;;;;6191742;23;20445;-93
2023/01/20 14:28:57;;;;;;;50.75;17.05;;;;;;;;;;6191880;23;20004;-92
2023/01/20 14:31:23;;;;;;;41.45;15.52;;;;;;;;;;6218347;23;20012;-95
2023/01/20 14:33:52;;;;;;;43.58;13.32;;;;;;;;;;6215316;23;20293;-94
2023/01/20 14:36:50;;;;;;;40.92;13.32;;;;;;;;;;6216797;23;20009;-94
2023/01/20 14:39:29;;;;;;;35.80;11.65;;;;;;;;;;6186874;23;20067;-95
2023/01/20 14:42:01;;;;;;;30.88;13.40;;;;;;;;;;6215968;23;20011;-95
2023/01/20 14:44:28;;;;;;;13.57;5.38;;;;;;;;;;6215022;23;20095;-94
2023/01/20 14:47:01;;;;;;;49.70;15.48;;;;;;;;;;6241757;23;20060;-95
2023/01/20 14:49:34;;;;;;;50.10;15.32;;;;;;;;;;6214991;23;20084;-94
2023/01/20 14:52:06;;;;;;;46.75;15.30;;;;;;;;;;6219859;23;20027;-94
2023/01/20 14:54:55;;;;;;;43.47;15.77;;;;;;;;;;6228064;22;20073;-95
2023/01/20 14:57:28;;;;;;;46.13;16.08;;;;;;;;;;6200884;23;20020;-95
2023/01/20 15:00:15;;;;;;;43.25;15.68;;;;;;;;;;6249102;23;20018;-94
2023/01/20 15:02:49;;;;;;;46.55;16.25;;;;;;;;;;6250771;23;20008;-94
2023/01/20 15:05:34;;;;;;;62.03;16.30;;;;;;;;;;6225981;23;20091;-94
2023/01/20 15:08:20;;;;;;;42.63;15.40;;;;;;;;;;6250466;23;20420;-94
2023/01/20 15:10:55;;;;;;;40.83;14.77;;;;;;;;;;6250101;23;20004;-94
2023/01/20 15:13:25;;;;;;;48.58;15.27;;;;;;;;;;6249953;23;20008;-95
2023/01/20 15:15:52;;;;;;;37.92;13.75;;;;;;;;;;6251137;23;20008;-94
2023/01/20 15:18:21;;;;;;;42.65;15.20;;;;;;;;;;6198321;23;20109;-94
2023/01/20 15:20:57;;;;;;;43.78;15.48;;;;;;;;;;6247654;23;20000;-95
2023/01/20 15:23:24;;;;;;;;;;;;;;;;;;6246768;23;20004;-94
2023/01/20 15:25:52;;;;;;;47.50;15.32;;;;;;;;;;6223097;23;19971;-94
2023/01/20 15:28:26;;;;;;;43.75;14.20;;;;;;;;;;6222309;23;20386;-95
2023/01/20 15:30:52;;;;;;;40.40;14.50;;;;;;;;;;6249268;23;20443;-95
2023/01/20 15:33:31;;;;;;;43.30;15.45;;;;;;;;;;6199091;23;20016;-95
2023/01/20 15:35:59;;;;;;;41.90;15.63;;;;;;;;;;6250733;23;20080;-94
2023/01/20 15:38:30;;;;;;;43.83;15.38;;;;;;;;;;6251135;23;20062;-96
2023/01/20 15:40:57;;;;;;;51.53;16.60;;;;;;;;;;6249423;23;20432;-95
2023/01/20 15:43:38;;;;;;;48.17;15.18;;;;;;;;;;6225740;23;20388;-95
2023/01/20 15:46:17;;;;;;;44.00;16.20;;;;;;;;;;6202224;23;20012;-94